createdAt,value
2023-11-08T00:01:10.733Z,17.33
2023-11-08T00:04:18.742Z,14.88
2023-11-08T00:07:25.215Z,14.71
2023-11-08T00:10:32.928Z,18.26
2023-11-08T00:13:44.590Z,18.95
2023-11-08T00:16:51.198Z,23.44
2023-11-08T00:19:57.478Z,22.53
2023-11-08T00:23:04.143Z,25.42
2023-11-08T00:26:10.455Z,26.79
2023-11-08T00:29:20.581Z,31.26
2023-11-08T00:32:26.429Z,26.97
2023-11-08T00:35:33.066Z,25.13
2023-11-08T00:38:40.021Z,29.02
2023-11-08T00:41:47.294Z,25.40
2023-11-08T00:44:55.910Z,20.27
2023-11-08T00:48:02.642Z,19.79
2023-11-08T00:51:09.222Z,18.81
2023-11-08T00:54:16.064Z,18.21
2023-11-08T00:57:22.419Z,19.09
2023-11-08T01:00:31.688Z,18.55
2023-11-08T01:03:37.632Z,21.72
2023-11-08T01:06:45.362Z,20.99
2023-11-08T01:09:51.210Z,19.81
2023-11-08T01:12:57.843Z,18.03
2023-11-08T01:16:07.149Z,18.02
2023-11-08T01:19:13.944Z,17.52
2023-11-08T01:22:20.538Z,17.99
2023-11-08T01:25:27.357Z,18.33
2023-11-08T01:28:33.553Z,17.99
2023-11-08T01:31:43.557Z,17.67
2023-11-08T01:34:49.420Z,17.32
2023-11-08T01:37:56.026Z,16.65
2023-11-08T01:41:01.856Z,15.80
2023-11-08T01:44:09.381Z,15.10
2023-11-08T01:47:18.406Z,14.70
2023-11-08T01:50:25.751Z,13.63
2023-11-08T01:53:32.218Z,13.18
2023-11-08T01:56:41.212Z,12.87
2023-11-08T01:59:50.020Z,12.46
2023-11-08T02:02:59.666Z,12.31
2023-11-08T02:06:08.933Z,10.79
2023-11-08T02:09:18.397Z,9.72
2023-11-08T02:12:24.498Z,9.02
2023-11-08T02:15:31.550Z,8.49
2023-11-08T02:18:40.706Z,8.12
2023-11-08T02:21:47.478Z,7.04
2023-11-08T02:24:56.056Z,6.04
2023-11-08T02:28:03.120Z,6.43
2023-11-08T02:31:09.085Z,6.99
2023-11-08T02:34:15.797Z,7.05
2023-11-08T02:37:21.680Z,7.39
2023-11-08T02:40:30.825Z,7.69
2023-11-08T02:43:37.471Z,7.12
2023-11-08T02:46:45.648Z,6.45
2023-11-08T02:49:51.680Z,6.97
2023-11-08T02:53:00.214Z,6.94
2023-11-08T02:56:10.629Z,7.73
2023-11-08T02:59:17.491Z,7.69
2023-11-08T03:02:25.571Z,7.43
2023-11-08T03:05:32.510Z,7.54
2023-11-08T03:08:39.029Z,8.06
2023-11-08T03:11:48.191Z,8.40
2023-11-08T03:14:54.045Z,8.74
2023-11-08T03:18:00.731Z,8.58
2023-11-08T03:21:07.167Z,9.34
2023-11-08T03:24:14.041Z,8.94
2023-11-08T03:27:24.014Z,8.99
2023-11-08T03:30:30.731Z,9.10
2023-11-08T03:33:37.145Z,8.80
2023-11-08T03:36:44.222Z,9.00
2023-11-08T03:39:50.409Z,9.35
2023-11-08T03:42:59.575Z,9.50
2023-11-08T03:46:05.405Z,9.76
2023-11-08T03:49:12.163Z,10.25
2023-11-08T03:52:18.170Z,10.50
2023-11-08T03:55:25.064Z,9.52
2023-11-08T03:58:33.474Z,9.41
2023-11-08T04:01:40.080Z,9.42
2023-11-08T04:04:46.552Z,9.56
2023-11-08T04:07:53.213Z,9.57
2023-11-08T04:10:59.147Z,10.00
2023-11-08T04:14:08.428Z,10.22
2023-11-08T04:17:16.740Z,9.60
2023-11-08T04:20:24.589Z,9.44
2023-11-08T04:23:31.193Z,9.84
2023-11-08T04:26:37.894Z,10.30
2023-11-08T04:29:46.478Z,11.00
2023-11-08T04:32:53.352Z,11.48
2023-11-08T04:36:01.922Z,10.94
2023-11-08T04:39:09.675Z,11.24
2023-11-08T04:42:15.508Z,12.28
2023-11-08T04:45:24.968Z,12.26
2023-11-08T04:48:30.806Z,11.97
2023-11-08T04:51:37.456Z,11.74
2023-11-08T04:54:51.607Z,12.59
2023-11-08T04:58:01.025Z,12.79
2023-11-08T05:01:09.618Z,12.54
2023-11-08T05:04:16.306Z,13.74
2023-11-08T05:07:22.606Z,12.46
2023-11-08T05:10:29.347Z,11.81
2023-11-08T05:13:40.024Z,11.60
2023-11-08T05:16:49.450Z,11.76
2023-11-08T05:19:55.353Z,11.94
2023-11-08T05:23:02.014Z,11.66
2023-11-08T05:26:07.913Z,11.28
2023-11-08T05:29:14.525Z,12.09
2023-11-08T05:32:24.620Z,11.49
2023-11-08T05:35:31.254Z,11.51
2023-11-08T05:38:38.858Z,11.42
2023-11-08T05:41:50.110Z,12.03
2023-11-08T05:44:59.472Z,12.32
2023-11-08T05:48:09.329Z,12.93
2023-11-08T05:51:15.521Z,12.54
2023-11-08T05:54:22.105Z,12.87
2023-11-08T05:57:30.666Z,13.01
2023-11-08T06:00:37.604Z,12.35
2023-11-08T06:03:46.551Z,13.11
2023-11-08T06:06:53.550Z,13.53
2023-11-08T06:10:01.970Z,14.19
2023-11-08T06:13:10.799Z,14.37
2023-11-08T06:16:17.403Z,29.85
2023-11-08T06:19:26.734Z,12.52
2023-11-08T06:22:33.350Z,12.46
2023-11-08T06:25:40.025Z,12.08
2023-11-08T06:28:46.090Z,12.17
2023-11-08T06:31:52.760Z,12.60
2023-11-08T06:35:02.227Z,14.03
2023-11-08T06:38:08.884Z,12.48
2023-11-08T06:41:17.335Z,11.06
2023-11-08T06:44:23.960Z,10.91
2023-11-08T06:47:30.362Z,10.85
2023-11-08T06:50:39.661Z,10.96
2023-11-08T06:53:45.640Z,10.82
2023-11-08T06:56:52.236Z,10.88
2023-11-08T06:59:58.190Z,10.41
2023-11-08T07:03:04.853Z,10.70
2023-11-08T07:06:15.667Z,10.11
2023-11-08T07:09:23.468Z,9.75
2023-11-08T07:12:29.342Z,9.74
2023-11-08T07:15:36.063Z,10.08
2023-11-08T07:18:42.001Z,9.81
2023-11-08T07:21:51.399Z,9.98
2023-11-08T07:24:57.954Z,9.89
2023-11-08T07:28:06.621Z,8.65
2023-11-08T07:31:12.690Z,12.05
2023-11-08T07:34:19.273Z,13.91
2023-11-08T07:37:27.777Z,11.78
2023-11-08T07:40:34.579Z,13.34
2023-11-08T07:43:40.393Z,13.77
2023-11-08T07:46:46.880Z,13.64
2023-11-08T07:49:53.132Z,13.54
2023-11-08T07:53:02.490Z,14.51
2023-11-08T07:56:09.539Z,15.90
2023-11-08T07:59:18.245Z,16.09
2023-11-08T08:02:24.135Z,17.37
2023-11-08T08:05:30.788Z,18.78
2023-11-08T08:08:39.217Z,18.42
2023-11-08T08:11:48.649Z,19.33
2023-11-08T08:14:54.444Z,20.28
2023-11-08T08:18:02.800Z,20.60
2023-11-08T08:21:09.747Z,19.91
2023-11-08T08:24:21.631Z,18.26
2023-11-08T08:27:28.625Z,17.29
2023-11-08T08:30:35.936Z,17.36
2023-11-08T08:33:41.797Z,16.45
2023-11-08T08:36:48.506Z,15.96
2023-11-08T08:39:57.418Z,15.66
2023-11-08T08:43:06.666Z,15.49
2023-11-08T08:46:12.639Z,14.32
2023-11-08T08:49:21.705Z,14.07
2023-11-08T08:52:29.207Z,13.81
2023-11-08T08:55:41.383Z,12.15
2023-11-08T08:58:48.455Z,12.43
2023-11-08T09:01:55.083Z,12.54
2023-11-08T09:05:00.951Z,12.76
2023-11-08T09:08:08.012Z,14.29
2023-11-08T09:11:16.583Z,13.46
2023-11-08T09:14:24.425Z,15.79
2023-11-08T09:17:30.317Z,16.38
2023-11-08T09:20:38.079Z,15.97
2023-11-08T09:23:43.988Z,15.43
2023-11-08T09:26:53.230Z,14.08
2023-11-08T09:29:59.252Z,13.43
2023-11-08T09:33:06.207Z,12.74
2023-11-08T09:36:13.496Z,12.79
2023-11-08T09:39:21.576Z,12.18
2023-11-08T09:42:33.059Z,11.38
2023-11-08T09:45:41.601Z,11.07
2023-11-08T09:48:49.078Z,11.05
2023-11-08T09:51:56.027Z,10.09
2023-11-08T09:55:02.947Z,10.72
2023-11-08T09:58:18.371Z,10.73
2023-11-08T10:01:27.680Z,10.13
2023-11-08T10:04:42.242Z,9.91
2023-11-08T10:07:51.277Z,9.09
2023-11-08T10:11:03.324Z,7.99
2023-11-08T10:14:12.146Z,8.18
2023-11-08T10:17:32.336Z,7.27
2023-11-08T10:21:02.572Z,6.84
2023-11-08T10:24:16.624Z,6.43
2023-11-08T10:27:22.697Z,6.25
2023-11-08T10:30:40.370Z,5.99
2023-11-08T10:34:01.387Z,6.22
2023-11-08T10:37:08.297Z,6.39
2023-11-08T10:40:16.919Z,6.32
2023-11-08T10:43:26.760Z,6.07
2023-11-08T10:46:36.451Z,5.68
2023-11-08T10:49:47.673Z,5.35
2023-11-08T10:52:53.867Z,5.06
2023-11-08T10:56:03.449Z,4.82
2023-11-08T10:59:12.320Z,4.63
2023-11-08T11:02:30.148Z,4.39
2023-11-08T11:05:44.148Z,4.36
2023-11-08T11:08:55.625Z,5.11
2023-11-08T11:12:16.788Z,4.89
2023-11-08T11:15:35.449Z,4.68
2023-11-08T11:18:50.678Z,10.88
2023-11-08T11:22:04.245Z,9.23
2023-11-08T11:25:11.564Z,5.18
2023-11-08T11:28:18.375Z,5.35
2023-11-08T11:31:39.296Z,6.80
2023-11-08T11:34:49.201Z,17.79
2023-11-08T11:38:27.909Z,48.93
2023-11-08T11:41:34.900Z,37.94
2023-11-08T11:44:44.106Z,44.77
2023-11-08T11:47:56.525Z,38.89
2023-11-08T11:51:05.878Z,32.28
2023-11-08T11:54:13.096Z,24.33
2023-11-08T11:57:21.330Z,39.68
2023-11-08T12:00:29.131Z,11.28
2023-11-08T12:03:35.410Z,9.80
2023-11-08T12:06:45.061Z,6.21
2023-11-08T12:09:52.311Z,7.01
2023-11-08T12:13:03.494Z,4.38
2023-11-08T12:16:10.220Z,4.03
2023-11-08T12:19:19.241Z,4.17
2023-11-08T12:22:27.848Z,4.07
2023-11-08T12:25:36.263Z,4.17
2023-11-08T12:28:43.696Z,3.85
2023-11-08T12:31:51.852Z,4.41
2023-11-08T12:34:58.013Z,5.81
2023-11-08T12:38:07.562Z,10.81
2023-11-08T12:41:14.577Z,11.04
2023-11-08T12:44:22.932Z,16.65
2023-11-08T12:47:31.217Z,7.84
2023-11-08T12:50:39.513Z,8.18
2023-11-08T12:53:53.394Z,9.16
2023-11-08T12:57:02.960Z,10.28
2023-11-08T13:00:12.582Z,18.40
2023-11-08T13:03:21.729Z,13.12
2023-11-08T13:06:32.250Z,8.97
2023-11-08T13:09:42.619Z,7.39
2023-11-08T13:12:48.514Z,7.13
2023-11-08T13:15:55.773Z,7.85
2023-11-08T13:19:01.853Z,7.45
2023-11-08T13:22:09.240Z,7.31
2023-11-08T13:25:18.185Z,8.80
2023-11-08T13:28:25.508Z,10.83
2023-11-08T13:31:31.293Z,35.58
2023-11-08T13:34:38.271Z,26.70
2023-11-08T13:37:44.098Z,13.69
2023-11-08T13:40:53.865Z,9.05
2023-11-08T13:44:00.086Z,8.47
2023-11-08T13:47:06.896Z,6.82
2023-11-08T13:50:15.253Z,7.28
2023-11-08T13:53:22.177Z,7.16
2023-11-08T13:56:32.040Z,7.72
2023-11-08T13:59:40.051Z,8.93
2023-11-08T14:03:00.507Z,9.74
2023-11-08T14:06:09.884Z,10.32
2023-11-08T14:09:18.296Z,10.72
2023-11-08T14:12:27.757Z,10.70
2023-11-08T14:15:35.457Z,12.66
2023-11-08T14:18:42.451Z,16.08
2023-11-08T14:21:48.655Z,12.80
2023-11-08T14:24:56.314Z,13.50
2023-11-08T14:28:04.782Z,14.00
2023-11-08T14:31:11.598Z,14.51
2023-11-08T14:34:17.518Z,14.46
2023-11-08T14:37:25.696Z,14.20
2023-11-08T14:40:32.740Z,13.74
2023-11-08T14:43:42.672Z,13.99
2023-11-08T14:46:48.539Z,14.17
2023-11-08T14:49:58.658Z,14.31
2023-11-08T14:53:04.607Z,15.27
2023-11-08T14:56:12.510Z,18.12
2023-11-08T14:59:23.982Z,18.88
2023-11-08T15:02:32.973Z,19.00
2023-11-08T15:05:39.802Z,19.37
2023-11-08T15:09:51.078Z,20.03
2023-11-08T15:12:12.904Z,20.49
2023-11-08T15:15:22.394Z,19.83
2023-11-08T15:18:29.251Z,19.16
2023-11-08T15:21:36.005Z,19.11
2023-11-08T15:24:44.075Z,25.74
2023-11-08T15:27:50.722Z,32.44
2023-11-08T15:30:59.332Z,29.83
2023-11-08T15:34:06.095Z,23.33
2023-11-08T15:37:17.279Z,23.27
2023-11-08T15:40:23.993Z,24.99
2023-11-08T15:43:29.821Z,25.76
2023-11-08T15:46:39.172Z,22.05
2023-11-08T15:49:45.344Z,19.04
2023-11-08T15:52:52.036Z,21.58
2023-11-08T15:55:57.933Z,24.48
2023-11-08T15:59:07.407Z,26.97
2023-11-08T16:02:15.875Z,25.24
2023-11-08T16:05:24.747Z,26.69
2023-11-08T16:08:31.213Z,28.28
2023-11-08T16:11:37.843Z,30.45
2023-11-08T16:14:43.766Z,31.90
2023-11-08T16:17:53.559Z,20.63
2023-11-08T16:20:59.554Z,19.88
2023-11-08T16:24:08.378Z,32.11
2023-11-08T16:27:14.340Z,22.38
2023-11-08T16:30:59.157Z,22.46
2023-11-08T16:33:53.153Z,17.97
2023-11-08T16:37:06.308Z,18.48
2023-11-08T16:40:14.916Z,16.88
2023-11-08T16:44:19.070Z,16.20
2023-11-08T16:47:32.613Z,21.96
2023-11-08T16:50:41.968Z,16.94
2023-11-08T16:53:47.869Z,29.88
2023-11-08T16:56:54.678Z,18.21
2023-11-08T17:00:00.515Z,19.77
2023-11-08T17:03:10.604Z,40.37
2023-11-08T17:06:19.245Z,31.70
2023-11-08T17:09:27.219Z,25.86
2023-11-08T17:12:33.849Z,22.89
2023-11-08T17:15:41.211Z,16.67
2023-11-08T17:18:47.298Z,17.69
2023-11-08T17:21:56.891Z,17.07
2023-11-08T17:25:04.479Z,15.46
2023-11-08T17:28:11.299Z,15.99
2023-11-08T17:31:18.089Z,15.40
2023-11-08T17:34:27.631Z,15.65
2023-11-08T17:37:36.620Z,15.54
2023-11-08T17:40:52.387Z,15.06
2023-11-08T17:43:58.333Z,15.02
2023-11-08T17:47:07.018Z,14.43
2023-11-08T17:50:16.691Z,14.56
2023-11-08T17:53:25.998Z,15.07
2023-11-08T17:56:32.027Z,16.54
2023-11-08T17:59:41.472Z,15.53
2023-11-08T18:02:47.760Z,14.93
2023-11-08T18:05:59.008Z,15.46
2023-11-08T18:09:11.628Z,16.06
2023-11-08T18:12:18.416Z,15.93
2023-11-08T18:15:26.842Z,16.09
2023-11-08T18:18:33.695Z,15.37
2023-11-08T18:21:42.993Z,15.62
2023-11-08T18:24:52.179Z,17.28
2023-11-08T18:28:00.417Z,17.36
2023-11-08T18:31:07.618Z,16.66
2023-11-08T18:34:13.976Z,16.84
2023-11-08T18:37:58.483Z,16.62
2023-11-08T18:41:11.025Z,16.66
2023-11-08T18:44:19.798Z,17.03
2023-11-08T18:47:26.256Z,17.83
2023-11-08T18:50:35.038Z,18.51
2023-11-08T18:53:41.669Z,17.30
2023-11-08T18:56:56.414Z,19.44
2023-11-08T19:00:03.036Z,17.27
2023-11-08T19:03:10.268Z,17.02
2023-11-08T19:06:16.280Z,20.65
2023-11-08T19:09:22.914Z,21.35
2023-11-08T19:12:31.967Z,19.37
2023-11-08T19:15:41.227Z,18.27
2023-11-08T19:18:47.420Z,19.47
2023-11-08T19:22:01.480Z,18.72
2023-11-08T19:25:08.145Z,19.26
2023-11-08T19:28:17.648Z,18.62
2023-11-08T19:31:23.899Z,19.32
2023-11-08T19:34:30.868Z,19.10
2023-11-08T19:37:37.042Z,20.85
2023-11-08T19:40:46.478Z,22.74
2023-11-08T19:43:54.911Z,22.81
2023-11-08T19:47:01.835Z,23.33
2023-11-08T19:50:09.112Z,23.42
2023-11-08T19:53:15.988Z,23.27
2023-11-08T19:56:27.838Z,25.20
2023-11-08T19:59:37.453Z,26.29
2023-11-08T20:02:43.465Z,25.84
2023-11-08T20:05:50.748Z,24.67
2023-11-08T20:08:56.666Z,24.15
2023-11-08T20:12:03.533Z,23.65
2023-11-08T20:15:13.001Z,22.99
2023-11-08T20:18:19.718Z,22.16
2023-11-08T20:21:27.572Z,21.12
2023-11-08T20:24:34.780Z,20.20
2023-11-08T20:27:43.616Z,19.49
2023-11-08T20:30:52.927Z,20.11
2023-11-08T20:33:59.208Z,19.36
2023-11-08T20:37:06.073Z,17.74
2023-11-08T20:40:14.998Z,17.96
2023-11-08T20:43:22.119Z,18.78
2023-11-08T20:46:30.656Z,20.47
2023-11-08T20:49:37.401Z,21.53
2023-11-08T20:52:44.906Z,20.32
2023-11-08T20:55:51.833Z,19.26
2023-11-08T20:58:57.652Z,18.06
2023-11-08T21:02:07.641Z,18.31
2023-11-08T21:05:15.165Z,18.38
2023-11-08T21:08:22.040Z,17.65
2023-11-08T21:11:27.792Z,17.02
2023-11-08T21:14:34.555Z,17.96
2023-11-08T21:17:43.523Z,19.44
2023-11-08T21:20:50.275Z,19.37
2023-11-08T21:23:56.190Z,16.93
2023-11-08T21:27:02.983Z,16.84
2023-11-08T21:30:14.120Z,17.07
2023-11-08T21:33:23.888Z,17.60
2023-11-08T21:36:29.748Z,15.93
2023-11-08T21:39:36.901Z,16.50
2023-11-08T21:42:43.109Z,16.90
2023-11-08T21:45:51.588Z,17.16
2023-11-08T21:49:00.260Z,17.50
2023-11-08T21:52:08.068Z,16.87
2023-11-08T21:55:15.202Z,16.28
2023-11-08T21:58:23.868Z,16.34
2023-11-08T22:01:29.725Z,16.67
2023-11-08T22:04:39.887Z,15.12
2023-11-08T22:07:46.044Z,14.45
2023-11-08T22:10:52.762Z,14.33
2023-11-08T22:13:58.968Z,13.55
2023-11-08T22:17:05.607Z,12.89
2023-11-08T22:20:17.674Z,13.29
2023-11-08T22:23:24.399Z,13.05
2023-11-08T22:26:30.688Z,13.29
2023-11-08T22:29:37.300Z,13.41
2023-11-08T22:32:44.957Z,12.91
2023-11-08T22:35:54.255Z,13.06
2023-11-08T22:39:02.206Z,12.64
2023-11-08T22:42:10.098Z,13.34
2023-11-08T22:45:16.168Z,13.92
2023-11-08T22:48:22.845Z,12.68
2023-11-08T22:51:34.417Z,12.97
2023-11-08T22:54:41.230Z,12.36
2023-11-08T22:57:47.016Z,11.79
2023-11-08T23:00:53.941Z,11.47
2023-11-08T23:03:59.882Z,12.01
2023-11-08T23:07:10.370Z,12.98
2023-11-08T23:10:16.354Z,12.54
2023-11-08T23:13:23.252Z,11.28
2023-11-08T23:16:29.662Z,11.52
2023-11-08T23:19:36.516Z,10.80
2023-11-08T23:22:45.191Z,11.23
2023-11-08T23:25:52.273Z,10.91
2023-11-08T23:28:58.141Z,10.81
2023-11-08T23:32:04.836Z,10.42
2023-11-08T23:35:13.965Z,10.23
2023-11-08T23:38:24.626Z,10.67
2023-11-08T23:41:30.457Z,10.94
2023-11-08T23:44:37.914Z,10.28
2023-11-08T23:47:44.926Z,11.13
2023-11-08T23:50:51.921Z,11.23
2023-11-08T23:54:00.384Z,11.03
2023-11-08T23:57:07.926Z,11.75
